createdAt,value
2017-06-10T00:00:48.563Z,12.60
2017-06-10T00:03:17.629Z,12.60
2017-06-10T00:05:46.569Z,12.60
2017-06-10T00:08:15.546Z,12.50
2017-06-10T00:10:44.429Z,12.50
2017-06-10T00:13:13.552Z,12.50
2017-06-10T00:15:50.076Z,12.50
2017-06-10T00:18:19.950Z,12.40
2017-06-10T00:20:48.843Z,12.40
2017-06-10T00:23:18.550Z,12.40
2017-06-10T00:25:47.617Z,12.40
2017-06-10T00:28:16.654Z,12.40
2017-06-10T00:30:45.739Z,12.40
2017-06-10T00:33:14.783Z,12.40
2017-06-10T00:35:43.845Z,12.40
2017-06-10T00:38:13.286Z,12.30
2017-06-10T00:40:42.310Z,12.30
2017-06-10T00:43:11.239Z,12.20
2017-06-10T00:45:41.009Z,12.20
2017-06-10T00:48:09.955Z,12.10
2017-06-10T00:50:38.860Z,12.20
2017-06-10T00:53:07.813Z,12.20
2017-06-10T00:55:36.720Z,12.20
2017-06-10T00:58:05.949Z,12.20
2017-06-10T01:00:34.939Z,12.10
2017-06-10T01:03:03.836Z,12.10
2017-06-10T01:05:32.745Z,12.10
2017-06-10T01:08:01.970Z,12.10
2017-06-10T01:10:30.970Z,12.10
2017-06-10T01:12:59.857Z,12.10
2017-06-10T01:15:29.191Z,12.10
2017-06-10T01:17:58.057Z,12.10
2017-06-10T01:20:28.113Z,12.10
2017-06-10T01:22:57.220Z,12.10
2017-06-10T01:25:26.790Z,12.00
2017-06-10T01:27:55.781Z,12.10
2017-06-10T01:30:25.631Z,12.10
2017-06-10T01:32:54.718Z,12.10
2017-06-10T01:35:23.675Z,12.00
2017-06-10T01:37:52.563Z,12.00
2017-06-10T01:40:21.479Z,12.00
2017-06-10T01:42:50.394Z,12.10
2017-06-10T01:45:19.771Z,12.00
2017-06-10T01:47:48.659Z,12.00
2017-06-10T01:50:18.445Z,12.00
2017-06-10T01:52:47.649Z,12.00
2017-06-10T01:55:16.825Z,12.00
2017-06-10T01:57:45.865Z,11.90
2017-06-10T02:00:15.379Z,11.90
2017-06-10T02:02:44.289Z,11.90
2017-06-10T02:05:13.286Z,11.90
2017-06-10T02:07:42.413Z,12.00
2017-06-10T02:10:13.339Z,12.00
2017-06-10T02:12:42.281Z,12.00
2017-06-10T02:15:12.082Z,12.00
2017-06-10T02:17:41.001Z,12.00
2017-06-10T02:20:13.512Z,12.00
2017-06-10T02:22:42.361Z,12.00
2017-06-10T02:25:13.498Z,12.00
2017-06-10T02:27:42.494Z,12.00
2017-06-10T02:30:14.850Z,12.00
2017-06-10T02:32:46.566Z,11.90
2017-06-10T02:35:16.558Z,12.00
2017-06-10T02:37:45.902Z,12.00
2017-06-10T02:40:14.864Z,12.00
2017-06-10T02:42:44.106Z,12.00
2017-06-10T02:45:14.072Z,11.90
2017-06-10T02:47:43.001Z,11.90
2017-06-10T02:50:13.097Z,11.90
2017-06-10T02:52:41.949Z,11.90
2017-06-10T02:55:13.672Z,11.90
2017-06-10T02:57:42.553Z,12.00
2017-06-10T03:00:11.850Z,12.00
2017-06-10T03:02:40.896Z,11.90
2017-06-10T03:05:09.906Z,11.90
2017-06-10T03:07:38.791Z,11.80
2017-06-10T03:10:17.855Z,11.80
2017-06-10T03:12:46.721Z,11.70
2017-06-10T03:15:16.690Z,11.70
2017-06-10T03:17:45.601Z,11.70
2017-06-10T03:20:15.457Z,11.70
2017-06-10T03:22:44.315Z,11.70
2017-06-10T03:25:14.428Z,11.70
2017-06-10T03:27:43.444Z,11.80
2017-06-10T03:30:13.251Z,11.80
2017-06-10T03:32:42.133Z,11.80
2017-06-10T03:35:11.053Z,11.90
2017-06-10T03:37:39.930Z,11.90
2017-06-10T03:40:11.727Z,11.90
2017-06-10T03:42:40.944Z,11.90
2017-06-10T03:45:10.808Z,12.00
2017-06-10T03:47:39.685Z,12.00
2017-06-10T03:50:08.886Z,12.10
2017-06-10T03:52:37.733Z,12.10
2017-06-10T03:55:07.526Z,12.10
2017-06-10T03:57:36.383Z,12.10
2017-06-10T04:00:10.513Z,12.10
2017-06-10T04:02:39.676Z,12.10
2017-06-10T04:05:09.052Z,12.10
2017-06-10T04:07:37.884Z,12.20
2017-06-10T04:10:07.477Z,12.20
2017-06-10T04:12:37.176Z,12.20
2017-06-10T04:15:07.693Z,12.20
2017-06-10T04:17:36.578Z,12.20
2017-06-10T04:20:09.595Z,12.20
2017-06-10T04:22:38.473Z,12.20
2017-06-10T04:25:18.595Z,12.20
2017-06-10T04:27:47.596Z,12.10
2017-06-10T04:30:16.554Z,12.10
2017-06-10T04:32:45.486Z,12.10
2017-06-10T04:35:15.477Z,12.00
2017-06-10T04:37:44.377Z,12.10
2017-06-10T04:40:13.386Z,12.20
2017-06-10T04:42:42.290Z,12.40
2017-06-10T04:45:11.231Z,12.90
2017-06-10T04:47:40.339Z,13.30
2017-06-10T04:50:11.643Z,13.50
2017-06-10T04:52:40.858Z,13.50
2017-06-10T04:55:09.954Z,13.90
2017-06-10T04:57:38.825Z,14.60
2017-06-10T05:00:14.173Z,14.90
2017-06-10T05:02:43.074Z,15.20
2017-06-10T05:05:12.117Z,15.90
2017-06-10T05:07:41.017Z,16.10
2017-06-10T05:10:09.990Z,16.50
2017-06-10T05:12:38.888Z,17.10
2017-06-10T05:15:08.072Z,17.60
2017-06-10T05:17:36.907Z,18.00
2017-06-10T05:20:08.013Z,18.60
2017-06-10T05:22:36.847Z,19.10
2017-06-10T05:25:08.976Z,19.60
2017-06-10T05:27:37.959Z,20.00
2017-06-10T05:30:12.493Z,20.30
2017-06-10T05:32:41.382Z,20.60
2017-06-10T05:35:12.503Z,20.70
2017-06-10T05:37:41.353Z,20.60
2017-06-10T05:40:11.434Z,20.70
2017-06-10T05:42:40.317Z,20.50
2017-06-10T05:45:09.326Z,20.00
2017-06-10T05:47:38.183Z,20.30
2017-06-10T05:50:13.070Z,20.00
2017-06-10T05:52:41.979Z,19.70
2017-06-10T05:55:11.094Z,19.50
2017-06-10T05:57:39.981Z,18.80
2017-06-10T06:00:15.007Z,18.10
2017-06-10T06:02:43.928Z,17.40
2017-06-10T06:05:13.675Z,17.40
2017-06-10T06:07:43.339Z,17.50
2017-06-10T06:10:12.467Z,17.50
2017-06-10T06:12:41.433Z,18.20
2017-06-10T06:15:12.072Z,19.60
2017-06-10T06:17:41.260Z,20.30
2017-06-10T06:20:11.487Z,20.70
2017-06-10T06:22:40.352Z,21.40
2017-06-10T06:25:16.116Z,22.20
2017-06-10T06:27:45.119Z,23.30
2017-06-10T06:30:14.247Z,23.30
2017-06-10T06:32:43.240Z,23.50
2017-06-10T06:35:15.062Z,23.60
2017-06-10T06:37:44.601Z,24.00
2017-06-10T06:40:13.581Z,24.70
2017-06-10T06:42:42.497Z,25.30
2017-06-10T06:45:12.849Z,24.70
2017-06-10T06:49:01.102Z,24.90
2017-06-10T06:51:31.338Z,25.60
2017-06-10T06:54:00.244Z,26.10
2017-06-10T06:56:29.169Z,26.30
2017-06-10T06:58:58.209Z,27.00
2017-06-10T07:01:27.119Z,27.70
2017-06-10T07:03:56.102Z,27.80
2017-06-10T07:06:26.032Z,27.30
2017-06-10T07:08:54.968Z,27.40
2017-06-10T07:11:23.990Z,27.50
2017-06-10T07:13:52.866Z,27.30
2017-06-10T07:16:21.851Z,27.50
2017-06-10T07:18:51.302Z,27.70
2017-06-10T07:21:20.183Z,27.40
2017-06-10T07:23:49.053Z,27.70
2017-06-10T07:26:17.994Z,27.70
2017-06-10T07:28:46.947Z,27.90
2017-06-10T07:31:15.921Z,28.00
2017-06-10T07:33:44.849Z,27.90
2017-06-10T07:36:13.736Z,26.80
2017-06-10T07:38:42.737Z,26.50
2017-06-10T07:41:15.099Z,26.50
2017-06-10T07:43:44.013Z,26.30
2017-06-10T07:46:12.887Z,26.70
2017-06-10T07:48:41.829Z,26.70
2017-06-10T07:51:10.925Z,26.40
2017-06-10T07:53:41.024Z,26.50
2017-06-10T07:56:10.805Z,26.00
2017-06-10T07:58:40.650Z,25.60
2017-06-10T08:01:20.050Z,25.00
2017-06-10T08:03:48.983Z,24.80
2017-06-10T08:06:18.631Z,24.90
2017-06-10T08:08:49.124Z,25.80
2017-06-10T08:11:20.606Z,27.00
2017-06-10T08:13:51.319Z,27.40
2017-06-10T08:16:25.099Z,27.70
2017-06-10T08:18:54.071Z,27.00
2017-06-10T08:21:23.738Z,27.20
2017-06-10T08:23:53.535Z,27.50
2017-06-10T08:26:24.589Z,28.60
2017-06-10T08:28:53.907Z,27.80
2017-06-10T08:31:23.245Z,27.50
2017-06-10T08:33:52.316Z,27.60
2017-06-10T08:36:21.295Z,27.70
2017-06-10T08:38:50.284Z,27.80
2017-06-10T08:41:20.173Z,26.90
2017-06-10T08:43:49.075Z,26.60
2017-06-10T08:46:18.211Z,26.80
2017-06-10T08:48:47.191Z,26.90
2017-06-10T08:51:17.306Z,26.30
2017-06-10T08:53:48.267Z,26.20
2017-06-10T08:57:19.871Z,26.30
2017-06-10T08:59:49.710Z,27.90
2017-06-10T09:02:19.630Z,28.30
2017-06-10T09:04:50.572Z,28.80
2017-06-10T09:07:20.077Z,28.90
2017-06-10T09:09:49.086Z,29.50
2017-06-10T09:12:18.909Z,28.10
2017-06-10T09:14:47.943Z,27.80
2017-06-10T09:17:17.851Z,27.70
2017-06-10T09:19:46.771Z,29.10
2017-06-10T09:22:15.991Z,30.20
2017-06-10T09:24:45.194Z,31.00
2017-06-10T09:27:14.263Z,31.50
2017-06-10T09:29:44.219Z,31.70
2017-06-10T09:32:13.144Z,30.30
2017-06-10T09:34:42.105Z,30.20
2017-06-10T09:37:11.222Z,29.70
2017-06-10T09:39:40.894Z,28.90
2017-06-10T09:42:10.885Z,27.90
2017-06-10T09:44:40.108Z,26.00
2017-06-10T09:47:11.834Z,26.60
2017-06-10T09:49:40.846Z,26.40
2017-06-10T09:52:10.085Z,26.70
2017-06-10T09:54:39.191Z,27.90
2017-06-10T09:57:14.551Z,27.30
2017-06-10T09:59:43.833Z,27.50
2017-06-10T10:02:12.802Z,29.30
2017-06-10T10:04:41.805Z,30.80
2017-06-10T10:07:11.343Z,31.60
2017-06-10T10:09:40.424Z,31.80
2017-06-10T10:12:09.576Z,31.90
2017-06-10T10:14:38.699Z,30.80
2017-06-10T10:17:09.477Z,29.70
2017-06-10T10:19:38.570Z,28.00
2017-06-10T10:22:08.329Z,27.30
2017-06-10T10:24:38.379Z,28.00
2017-06-10T10:27:09.233Z,27.90
2017-06-10T10:29:38.244Z,27.50
2017-06-10T10:32:09.484Z,27.90
2017-06-10T10:34:38.633Z,27.40
2017-06-10T10:37:09.734Z,28.30
2017-06-10T10:39:38.892Z,30.10
2017-06-10T10:42:07.993Z,30.90
2017-06-10T10:44:37.021Z,30.60
2017-06-10T10:47:07.678Z,30.00
2017-06-10T10:49:38.562Z,29.50
2017-06-10T10:52:08.619Z,28.10
2017-06-10T10:54:37.716Z,27.50
2017-06-10T10:57:07.909Z,27.60
2017-06-10T10:59:41.096Z,27.10
2017-06-10T11:02:11.157Z,27.40
2017-06-10T11:04:40.474Z,28.20
2017-06-10T11:07:09.532Z,27.80
2017-06-10T11:09:39.371Z,26.80
2017-06-10T11:12:09.599Z,25.60
2017-06-10T11:14:38.811Z,25.70
2017-06-10T11:17:11.155Z,26.70
2017-06-10T11:19:40.967Z,27.60
2017-06-10T11:22:11.232Z,27.50
2017-06-10T11:24:40.295Z,27.80
2017-06-10T11:27:10.310Z,29.00
2017-06-10T11:29:39.341Z,30.70
2017-06-10T11:32:09.857Z,31.20
2017-06-10T11:34:39.078Z,30.80
2017-06-10T11:37:09.266Z,29.70
2017-06-10T11:39:38.361Z,29.10
2017-06-10T11:42:08.012Z,28.50
2017-06-10T11:44:37.151Z,27.90
2017-06-10T11:47:06.683Z,27.40
2017-06-10T11:49:36.066Z,27.40
2017-06-10T11:52:05.350Z,27.80
2017-06-10T11:54:34.347Z,27.90
2017-06-10T11:57:03.640Z,27.70
2017-06-10T11:59:32.669Z,27.70
2017-06-10T12:02:01.689Z,27.30
2017-06-10T12:04:32.543Z,26.60
2017-06-10T12:07:02.501Z,26.10
2017-06-10T12:09:35.078Z,26.20
2017-06-10T12:12:05.800Z,26.10
2017-06-10T12:14:34.904Z,26.60
2017-06-10T12:17:04.183Z,26.40
2017-06-10T12:19:34.827Z,27.00
2017-06-10T12:22:04.555Z,27.50
2017-06-10T12:24:33.745Z,27.00
2017-06-10T12:27:04.609Z,26.60
2017-06-10T12:29:36.435Z,26.60
2017-06-10T12:32:05.952Z,26.60
2017-06-10T12:34:36.687Z,26.30
2017-06-10T12:37:08.597Z,26.10
2017-06-10T12:39:37.671Z,26.10
2017-06-10T12:42:07.497Z,25.90
2017-06-10T12:44:38.826Z,26.10
2017-06-10T12:47:10.945Z,25.60
2017-06-10T12:49:41.092Z,25.70
2017-06-10T12:52:11.434Z,25.90
2017-06-10T12:54:40.473Z,26.20
2017-06-10T12:57:10.447Z,26.50
2017-06-10T12:59:40.257Z,26.60
2017-06-10T13:02:16.917Z,26.60
2017-06-10T13:04:46.932Z,26.70
2017-06-10T13:07:16.687Z,26.80
2017-06-10T13:09:46.763Z,27.00
2017-06-10T13:12:16.967Z,26.90
2017-06-10T13:14:49.410Z,26.30
2017-06-10T13:17:19.020Z,25.50
2017-06-10T13:19:50.810Z,25.50
2017-06-10T13:22:22.898Z,25.40
2017-06-10T13:24:52.958Z,25.10
2017-06-10T13:27:22.037Z,24.80
2017-06-10T13:29:52.348Z,24.90
2017-06-10T13:32:21.622Z,25.20
2017-06-10T13:34:51.026Z,25.20
2017-06-10T13:37:20.227Z,25.40
2017-06-10T13:39:49.390Z,25.40
2017-06-10T13:42:19.520Z,24.60
2017-06-10T13:44:49.417Z,24.30
2017-06-10T13:47:20.228Z,24.40
2017-06-10T13:49:49.972Z,24.40
2017-06-10T13:52:20.759Z,23.70
2017-06-10T13:54:50.903Z,23.80
2017-06-10T13:57:20.791Z,24.20
2017-06-10T13:59:49.824Z,24.70
2017-06-10T14:02:19.938Z,24.60
2017-06-10T14:04:55.400Z,24.40
2017-06-10T14:07:27.834Z,24.20
2017-06-10T14:09:57.789Z,23.70
2017-06-10T14:12:27.452Z,23.40
2017-06-10T14:14:56.457Z,23.50
2017-06-10T14:17:25.813Z,23.10
2017-06-10T14:19:54.815Z,23.30
2017-06-10T14:22:30.604Z,23.50
2017-06-10T14:24:59.610Z,23.70
2017-06-10T14:27:29.554Z,24.00
2017-06-10T14:29:58.577Z,23.90
2017-06-10T14:32:28.330Z,23.00
2017-06-10T14:34:59.401Z,23.60
2017-06-10T14:37:31.489Z,24.00
2017-06-10T14:40:00.912Z,24.20
2017-06-10T14:42:30.242Z,24.20
2017-06-10T14:44:59.389Z,24.40
2017-06-10T14:47:32.376Z,24.70
2017-06-10T14:50:01.442Z,24.50
2017-06-10T14:52:32.044Z,24.50
2017-06-10T14:57:38.787Z,24.60
2017-06-10T15:00:21.402Z,24.50
2017-06-10T15:02:51.508Z,24.60
2017-06-10T15:05:22.512Z,24.90
2017-06-10T15:08:23.000Z,24.90
2017-06-10T15:10:52.856Z,24.90
2017-06-10T15:13:21.973Z,24.70
2017-06-10T15:15:52.499Z,24.60
2017-06-10T15:18:23.576Z,24.50
2017-06-10T15:20:53.426Z,24.50
2017-06-10T15:23:22.770Z,24.40
2017-06-10T15:25:52.399Z,24.50
2017-06-10T15:28:22.806Z,24.60
2017-06-10T15:30:53.087Z,24.50
2017-06-10T15:33:23.870Z,24.10
2017-06-10T15:35:53.099Z,23.30
2017-06-10T15:38:24.990Z,23.40
2017-06-10T15:40:55.840Z,23.20
2017-06-10T15:43:25.678Z,23.00
2017-06-10T15:45:54.849Z,22.70
2017-06-10T15:48:25.254Z,22.50
2017-06-10T15:50:57.447Z,22.30
2017-06-10T15:53:28.817Z,22.60
2017-06-10T15:55:58.573Z,23.00
2017-06-10T15:58:28.474Z,23.10
2017-06-10T16:01:00.046Z,23.00
2017-06-10T16:03:32.245Z,22.90
2017-06-10T16:06:04.651Z,23.00
2017-06-10T16:08:36.458Z,23.00
2017-06-10T16:11:09.135Z,23.30
2017-06-10T16:13:43.452Z,23.50
2017-06-10T16:16:20.067Z,23.70
2017-06-10T16:18:52.395Z,23.40
2017-06-10T16:21:25.028Z,23.40
2017-06-10T16:23:58.602Z,23.40
2017-06-10T16:26:30.733Z,23.10
2017-06-10T16:29:00.371Z,22.80
2017-06-10T16:31:34.973Z,22.70
2017-06-10T16:34:08.585Z,22.40
2017-06-10T16:36:43.434Z,22.40
2017-06-10T16:39:14.275Z,22.40
2017-06-10T16:41:45.008Z,22.50
2017-06-10T16:44:16.763Z,22.30
2017-06-10T16:46:57.596Z,22.30
2017-06-10T16:49:29.034Z,22.20
2017-06-10T16:52:07.185Z,22.20
2017-06-10T16:54:36.621Z,21.90
2017-06-10T16:57:09.080Z,21.70
2017-06-10T16:59:39.242Z,22.00
2017-06-10T17:02:14.714Z,22.10
2017-06-10T17:04:48.503Z,22.20
2017-06-10T17:07:18.371Z,22.30
2017-06-10T17:09:48.747Z,22.30
2017-06-10T17:12:26.132Z,22.30
2017-06-10T17:14:55.406Z,22.20
2017-06-10T17:17:28.209Z,22.10
2017-06-10T17:19:57.280Z,21.90
2017-06-10T17:22:29.915Z,21.70
2017-06-10T17:24:58.959Z,21.60
2017-06-10T17:27:28.838Z,21.50
2017-06-10T17:29:58.382Z,21.40
2017-06-10T17:32:31.360Z,21.30
2017-06-10T17:35:11.163Z,21.30
2017-06-10T17:37:40.335Z,21.30
2017-06-10T17:40:15.743Z,21.40
2017-06-10T17:42:45.766Z,21.30
2017-06-10T17:45:56.657Z,21.30
2017-06-10T17:48:29.065Z,21.40
2017-06-10T17:51:02.240Z,21.40
2017-06-10T17:53:32.961Z,21.40
2017-06-10T17:56:04.880Z,21.40
2017-06-10T17:58:35.922Z,21.40
2017-06-10T18:01:14.260Z,21.30
2017-06-10T18:03:51.588Z,21.20
2017-06-10T18:06:22.727Z,21.20
2017-06-10T18:08:53.588Z,21.20
2017-06-10T18:11:23.209Z,21.10
2017-06-10T18:13:52.285Z,21.00
2017-06-10T18:16:22.256Z,21.10
2017-06-10T18:18:51.985Z,21.20
2017-06-10T18:21:24.168Z,21.20
2017-06-10T18:23:54.019Z,21.20
2017-06-10T18:26:26.079Z,21.20
2017-06-10T18:28:58.834Z,21.20
2017-06-10T18:31:34.236Z,21.20
2017-06-10T18:34:07.894Z,21.10
2017-06-10T18:36:38.826Z,21.10
2017-06-10T18:39:12.091Z,21.00
2017-06-10T18:41:46.731Z,20.90
2017-06-10T18:44:21.383Z,20.80
2017-06-10T18:46:54.746Z,20.70
2017-06-10T18:49:26.340Z,20.60
2017-06-10T18:51:56.230Z,20.50
2017-06-10T18:54:40.298Z,20.30
2017-06-10T18:57:14.560Z,20.10
2017-06-10T18:59:47.287Z,20.00
2017-06-10T19:02:16.859Z,19.90
2017-06-10T19:04:50.397Z,20.00
2017-06-10T19:07:29.089Z,20.00
2017-06-10T19:09:59.555Z,20.00
2017-06-10T19:12:28.951Z,19.90
2017-06-10T19:14:58.057Z,20.00
2017-06-10T19:17:30.362Z,20.10
2017-06-10T19:19:59.587Z,20.10
2017-06-10T19:22:30.111Z,20.00
2017-06-10T19:24:59.240Z,19.90
2017-06-10T19:27:30.180Z,19.80
2017-06-10T19:29:59.231Z,19.70
2017-06-10T19:32:28.235Z,19.40
2017-06-10T19:34:57.818Z,19.40
2017-06-10T19:37:28.743Z,19.30
2017-06-10T19:42:41.660Z,19.20
2017-06-10T19:45:17.367Z,19.10
2017-06-10T19:47:50.364Z,19.10
2017-06-10T19:53:08.731Z,19.00
2017-06-10T19:55:43.441Z,19.00
2017-06-10T19:58:12.671Z,19.00
2017-06-10T20:00:44.406Z,19.20
2017-06-10T20:03:15.916Z,19.20
2017-06-10T20:05:46.325Z,19.10
2017-06-10T20:08:17.462Z,19.10
2017-06-10T20:10:48.969Z,19.10
2017-06-10T20:15:24.233Z,19.10
2017-06-10T20:17:54.065Z,19.10
2017-06-10T20:20:23.392Z,19.10
2017-06-10T20:22:52.386Z,19.10
2017-06-10T20:25:21.634Z,19.10
2017-06-10T20:27:50.878Z,19.10
2017-06-10T20:30:21.443Z,19.20
2017-06-10T20:35:39.134Z,19.00
2017-06-10T20:38:12.059Z,18.90
2017-06-10T20:40:42.942Z,18.90
2017-06-10T20:43:12.528Z,18.70
2017-06-10T20:45:41.716Z,18.70
2017-06-10T20:48:10.807Z,18.60
2017-06-10T20:50:40.037Z,18.50
2017-06-10T20:53:11.779Z,18.50
2017-06-10T20:55:43.988Z,18.40
2017-06-10T20:58:13.269Z,18.40
2017-06-10T21:00:42.584Z,18.30
2017-06-10T21:03:11.823Z,18.20
2017-06-10T21:05:41.500Z,18.20
2017-06-10T21:08:10.629Z,18.20
2017-06-10T21:10:40.488Z,18.10
2017-06-10T21:13:10.293Z,18.10
2017-06-10T21:15:41.217Z,18.10
2017-06-10T21:18:10.591Z,18.10
2017-06-10T21:20:43.945Z,18.10
2017-06-10T21:23:13.113Z,18.10
2017-06-10T21:25:42.641Z,18.00
2017-06-10T21:28:11.734Z,17.90
2017-06-10T21:30:43.173Z,17.90
2017-06-10T21:33:13.002Z,17.80
2017-06-10T21:35:44.809Z,17.80
2017-06-10T21:38:13.866Z,17.80
2017-06-10T21:40:42.966Z,17.80
2017-06-10T21:43:12.237Z,17.70
2017-06-10T21:45:42.253Z,17.60
2017-06-10T21:48:11.447Z,17.40
2017-06-10T21:50:42.837Z,17.20
2017-06-10T21:53:18.387Z,17.20
2017-06-10T21:55:50.081Z,17.10
2017-06-10T21:58:19.102Z,17.10
2017-06-10T22:00:50.283Z,17.00
2017-06-10T22:03:20.039Z,16.90
2017-06-10T22:05:50.737Z,16.90
2017-06-10T22:08:20.496Z,16.90
2017-06-10T22:10:49.556Z,16.70
2017-06-10T22:14:38.662Z,16.50
2017-06-10T22:17:10.401Z,16.30
2017-06-10T22:19:40.077Z,16.20
2017-06-10T22:22:10.627Z,16.20
2017-06-10T22:24:41.555Z,16.20
2017-06-10T22:27:11.617Z,16.10
2017-06-10T22:29:40.749Z,16.10
2017-06-10T22:32:11.183Z,16.00
2017-06-10T22:34:40.863Z,16.00
2017-06-10T22:37:11.317Z,16.00
2017-06-10T22:39:40.625Z,16.00
2017-06-10T22:42:10.432Z,15.90
2017-06-10T22:44:39.434Z,15.80
2017-06-10T22:47:15.144Z,15.70
2017-06-10T22:49:44.074Z,15.70
2017-06-10T22:52:12.978Z,15.70
2017-06-10T22:54:41.920Z,15.60
2017-06-10T22:57:11.523Z,15.50
2017-06-10T22:59:40.465Z,15.40
2017-06-10T23:02:09.397Z,15.30
2017-06-10T23:04:39.207Z,15.30
2017-06-10T23:07:09.301Z,15.20
2017-06-10T23:09:38.266Z,15.10
2017-06-10T23:12:07.291Z,15.20
2017-06-10T23:14:36.289Z,15.10
2017-06-10T23:17:05.957Z,15.00
2017-06-10T23:19:34.879Z,14.90
2017-06-10T23:22:05.439Z,14.90
2017-06-10T23:24:34.514Z,14.90
2017-06-10T23:27:04.483Z,14.90
2017-06-10T23:29:33.482Z,14.80
2017-06-10T23:32:02.414Z,14.80
2017-06-10T23:34:31.314Z,14.80
2017-06-10T23:37:01.360Z,14.80
2017-06-10T23:39:30.384Z,14.80
2017-06-10T23:41:59.325Z,14.80
2017-06-10T23:44:28.427Z,14.80
2017-06-10T23:46:57.373Z,14.80
2017-06-10T23:49:26.297Z,14.80
2017-06-10T23:51:55.244Z,14.70
2017-06-10T23:54:24.236Z,14.70
2017-06-10T23:56:53.141Z,14.70
2017-06-10T23:59:22.161Z,14.70
